createdAt,value
2024-01-29T00:03:29.104Z,11.87
2024-01-29T00:06:05.820Z,13.21
2024-01-29T00:08:41.541Z,11.24
2024-01-29T00:11:12.699Z,13.34
2024-01-29T00:13:43.771Z,13.30
2024-01-29T00:16:17.315Z,12.03
2024-01-29T00:18:55.082Z,11.80
2024-01-29T00:21:26.098Z,13.20
2024-01-29T00:24:02.371Z,12.93
2024-01-29T00:26:37.111Z,13.32
2024-01-29T00:29:36.302Z,13.46
2024-01-29T00:32:07.690Z,13.17
2024-01-29T00:34:42.420Z,13.62
2024-01-29T00:37:31.564Z,13.93
2024-01-29T00:40:02.546Z,14.13
2024-01-29T00:42:38.564Z,14.23
2024-01-29T00:45:25.155Z,13.41
2024-01-29T00:47:58.531Z,14.60
2024-01-29T00:50:31.673Z,14.20
2024-01-29T00:53:02.526Z,14.43
2024-01-29T00:55:44.482Z,14.80
2024-01-29T00:58:19.688Z,13.44
2024-01-29T01:00:50.554Z,13.08
2024-01-29T01:03:28.163Z,14.59
2024-01-29T01:06:24.498Z,14.52
2024-01-29T01:28:26.507Z,13.92
2024-01-29T01:31:10.880Z,15.00
2024-01-29T01:43:18.799Z,15.00
2024-01-29T01:49:49.291Z,14.34
2024-01-29T02:14:15.175Z,15.84
2024-01-29T02:23:33.633Z,15.14
2024-01-29T02:35:27.611Z,15.50
2024-01-29T02:38:18.828Z,15.96
2024-01-29T02:49:26.134Z,15.72
2024-01-29T03:05:34.238Z,16.08
2024-01-29T03:08:08.663Z,16.09
2024-01-29T03:14:09.225Z,17.79
2024-01-29T03:16:46.575Z,17.51
2024-01-29T03:19:19.496Z,16.36
2024-01-29T03:21:59.050Z,16.21
2024-01-29T03:24:49.257Z,16.48
2024-01-29T03:36:37.761Z,15.86
2024-01-29T03:39:11.410Z,15.77
2024-01-29T03:41:48.461Z,16.31
2024-01-29T03:44:30.557Z,16.68
2024-01-29T03:47:02.668Z,16.88
2024-01-29T03:49:50.215Z,17.54
2024-01-29T03:52:25.087Z,15.86
2024-01-29T03:54:56.466Z,14.30
2024-01-29T03:57:39.952Z,17.69
2024-01-29T04:00:12.986Z,17.24
2024-01-29T04:03:09.638Z,15.30
2024-01-29T04:06:13.973Z,16.17
2024-01-29T04:09:04.056Z,17.03
2024-01-29T04:15:03.550Z,15.78
2024-01-29T04:21:12.094Z,17.44
2024-01-29T04:30:06.692Z,16.63
2024-01-29T04:32:42.864Z,16.43
2024-01-29T04:35:45.984Z,16.49
2024-01-29T04:41:42.369Z,16.77
2024-01-29T05:04:50.126Z,17.22
2024-01-29T05:23:23.237Z,17.20
2024-01-29T05:26:19.796Z,17.16
2024-01-29T05:45:51.098Z,18.29
2024-01-29T05:48:33.516Z,17.82
2024-01-29T05:51:34.641Z,16.53
2024-01-29T06:06:57.952Z,16.50
2024-01-29T06:09:48.937Z,17.08
2024-01-29T06:18:08.489Z,17.17
2024-01-29T06:20:40.666Z,17.27
2024-01-29T06:26:05.559Z,17.68
2024-01-29T06:28:44.958Z,17.86
2024-01-29T06:31:35.745Z,17.71
2024-01-29T06:40:46.707Z,18.10
2024-01-29T06:43:57.831Z,17.61
2024-01-29T06:46:36.126Z,18.47
2024-01-29T06:49:20.818Z,17.62
2024-01-29T07:24:22.165Z,16.63
2024-01-29T07:33:06.663Z,16.74
2024-01-29T07:38:57.287Z,16.46
2024-01-29T07:41:28.074Z,15.64
2024-01-29T07:47:47.391Z,16.93
2024-01-29T07:50:44.181Z,17.52
2024-01-29T07:56:09.928Z,17.74
2024-01-29T07:58:40.520Z,16.99
2024-01-29T08:01:26.605Z,17.32
2024-01-29T08:04:13.227Z,15.56
2024-01-29T08:06:44.379Z,16.42
2024-01-29T08:09:34.356Z,17.02
2024-01-29T08:12:27.057Z,30.93
2024-01-29T08:17:47.659Z,17.10
2024-01-29T08:20:48.511Z,17.83
2024-01-29T08:23:35.200Z,16.72
2024-01-29T08:29:16.264Z,16.84
2024-01-29T08:35:15.011Z,15.54
2024-01-29T08:38:04.389Z,14.87
2024-01-29T08:40:36.741Z,14.48
2024-01-29T08:43:07.416Z,14.98
2024-01-29T08:45:56.890Z,17.62
2024-01-29T08:48:27.808Z,17.07
2024-01-29T08:51:15.665Z,16.37
2024-01-29T08:57:05.434Z,15.44
2024-01-29T08:59:55.570Z,16.51
2024-01-29T09:05:28.056Z,15.80
2024-01-29T09:11:16.138Z,15.52
2024-01-29T09:19:37.303Z,16.69
2024-01-29T09:22:26.437Z,16.04
2024-01-29T09:25:14.419Z,16.60
2024-01-29T09:27:45.425Z,16.84
2024-01-29T09:33:32.237Z,15.92
2024-01-29T09:36:33.824Z,17.12
2024-01-29T09:39:24.903Z,15.79
2024-01-29T09:42:21.636Z,16.44
2024-01-29T09:44:56.329Z,16.82
2024-01-29T09:47:28.534Z,16.67
2024-01-29T09:50:20.661Z,17.09
2024-01-29T09:52:54.156Z,19.82
2024-01-29T09:55:35.279Z,17.40
2024-01-29T09:58:07.433Z,18.20
2024-01-29T10:01:01.366Z,18.29
2024-01-29T10:03:51.681Z,18.36
2024-01-29T10:06:47.622Z,18.06
2024-01-29T10:09:18.833Z,17.16
2024-01-29T10:11:55.791Z,19.52
2024-01-29T10:20:04.521Z,15.51
2024-01-29T10:28:20.265Z,17.78
2024-01-29T10:33:42.396Z,20.87
2024-01-29T10:36:32.084Z,16.73
2024-01-29T10:40:36.493Z,15.98
2024-01-29T10:42:43.767Z,17.77
2024-01-29T10:48:24.219Z,17.31
2024-01-29T10:51:21.986Z,18.42
2024-01-29T10:54:16.824Z,19.78
2024-01-29T10:56:47.801Z,17.12
2024-01-29T10:59:21.688Z,18.41
2024-01-29T11:02:26.558Z,19.49
2024-01-29T11:17:45.200Z,18.63
2024-01-29T11:30:35.346Z,17.79
2024-01-29T11:33:24.248Z,18.07
2024-01-29T11:35:58.317Z,17.40
2024-01-29T11:38:52.539Z,18.26
2024-01-29T11:44:13.558Z,19.61
2024-01-29T11:49:34.846Z,18.90
2024-01-29T11:52:24.171Z,18.64
2024-01-29T11:54:56.553Z,17.21
2024-01-29T11:57:34.002Z,19.81
2024-01-29T12:00:30.758Z,18.58
2024-01-29T12:03:18.580Z,20.41
2024-01-29T12:05:55.390Z,23.66
2024-01-29T12:08:29.992Z,20.67
2024-01-29T12:11:04.018Z,19.17
2024-01-29T12:13:34.863Z,19.73
2024-01-29T12:16:08.723Z,20.78
2024-01-29T12:18:47.488Z,19.03
2024-01-29T12:21:30.113Z,21.57
2024-01-29T12:24:00.616Z,20.21
2024-01-29T12:26:31.276Z,20.09
2024-01-29T12:29:05.172Z,19.69
2024-01-29T12:31:41.115Z,23.90
2024-01-29T12:34:20.588Z,24.01
2024-01-29T12:36:59.213Z,21.26
2024-01-29T12:39:31.103Z,20.74
2024-01-29T12:42:01.548Z,21.89
2024-01-29T12:44:32.000Z,21.33
2024-01-29T12:47:02.382Z,21.90
2024-01-29T12:49:35.325Z,19.36
2024-01-29T12:52:06.190Z,20.74
2024-01-29T12:54:36.616Z,20.29
2024-01-29T12:57:09.114Z,19.77
2024-01-29T12:59:40.309Z,20.69
2024-01-29T13:02:13.768Z,21.38
2024-01-29T13:04:44.394Z,19.53
2024-01-29T13:07:17.015Z,19.52
2024-01-29T13:09:47.409Z,18.96
2024-01-29T13:12:17.804Z,19.92
2024-01-29T13:14:48.247Z,19.38
2024-01-29T13:17:28.385Z,19.48
2024-01-29T13:19:59.271Z,20.81
2024-01-29T13:22:29.712Z,18.90
2024-01-29T13:25:00.138Z,19.22
2024-01-29T13:27:30.911Z,20.91
2024-01-29T13:30:01.845Z,22.63
2024-01-29T13:32:32.190Z,21.24
2024-01-29T13:35:02.613Z,20.71
2024-01-29T13:37:33.020Z,23.42
2024-01-29T13:40:16.198Z,21.71
2024-01-29T13:42:55.293Z,22.69
2024-01-29T13:45:26.486Z,22.84
2024-01-29T13:47:57.898Z,22.36
2024-01-29T13:50:29.333Z,22.80
2024-01-29T13:52:59.655Z,21.98
2024-01-29T13:55:33.276Z,23.16
2024-01-29T13:58:03.704Z,23.42
2024-01-29T14:00:35.386Z,23.10
2024-01-29T14:03:06.004Z,21.68
2024-01-29T14:05:36.402Z,20.76
2024-01-29T14:08:07.230Z,20.78
2024-01-29T14:10:37.665Z,20.21
2024-01-29T14:13:10.069Z,22.09
2024-01-29T14:15:41.954Z,21.78
2024-01-29T14:18:14.716Z,21.38
2024-01-29T14:20:45.314Z,21.40
2024-01-29T14:23:15.937Z,21.69
2024-01-29T14:25:46.269Z,22.26
2024-01-29T14:28:19.468Z,22.97
2024-01-29T14:30:52.114Z,23.58
2024-01-29T14:33:22.509Z,21.78
2024-01-29T14:35:55.918Z,20.69
2024-01-29T14:38:31.449Z,23.28
2024-01-29T14:41:03.511Z,22.13
2024-01-29T14:43:33.946Z,21.43
2024-01-29T14:46:04.365Z,22.01
2024-01-29T14:48:34.839Z,23.14
2024-01-29T14:51:05.217Z,22.02
2024-01-29T14:53:35.573Z,22.50
2024-01-29T14:56:07.132Z,23.24
2024-01-29T14:58:37.532Z,23.49
2024-01-29T15:01:08.041Z,23.14
2024-01-29T15:03:40.026Z,21.89
2024-01-29T15:06:10.554Z,22.96
2024-01-29T15:08:40.978Z,22.58
2024-01-29T15:11:12.269Z,24.38
2024-01-29T15:13:42.663Z,23.14
2024-01-29T15:16:13.087Z,23.43
2024-01-29T15:18:43.624Z,22.09
2024-01-29T15:21:14.916Z,22.90
2024-01-29T15:23:45.230Z,24.77
2024-01-29T15:26:16.205Z,24.18
2024-01-29T15:28:47.154Z,23.59
2024-01-29T15:31:20.362Z,24.94
2024-01-29T15:33:53.044Z,27.34
2024-01-29T15:36:23.695Z,23.94
2024-01-29T15:38:54.050Z,25.18
2024-01-29T15:41:24.439Z,26.69
2024-01-29T15:43:54.718Z,29.00
2024-01-29T15:46:25.617Z,27.08
2024-01-29T15:48:56.105Z,29.10
2024-01-29T15:51:28.465Z,27.97
2024-01-29T15:53:59.247Z,27.44
2024-01-29T15:56:30.934Z,28.59
2024-01-29T15:59:01.747Z,26.40
2024-01-29T16:01:34.579Z,24.78
2024-01-29T16:04:10.701Z,26.50
2024-01-29T16:06:41.174Z,28.94
2024-01-29T16:09:11.591Z,26.16
2024-01-29T16:11:41.902Z,24.64
2024-01-29T16:14:12.235Z,29.57
2024-01-29T16:16:42.780Z,31.64
2024-01-29T16:19:29.585Z,29.81
2024-01-29T16:22:07.548Z,30.88
2024-01-29T16:24:43.193Z,33.69
2024-01-29T16:27:13.516Z,26.48
2024-01-29T16:29:43.828Z,56.52
2024-01-29T16:32:14.228Z,52.03
2024-01-29T16:34:44.523Z,69.17
2024-01-29T16:37:16.948Z,49.64
2024-01-29T16:39:47.384Z,42.21
2024-01-29T16:42:17.696Z,40.53
2024-01-29T16:44:53.807Z,56.42
2024-01-29T16:47:24.119Z,37.63
2024-01-29T16:49:57.276Z,32.69
2024-01-29T16:52:27.996Z,32.02
2024-01-29T16:54:58.865Z,29.94
2024-01-29T16:57:29.372Z,29.33
2024-01-29T16:59:59.680Z,25.29
2024-01-29T17:02:30.026Z,26.84
2024-01-29T17:05:00.563Z,27.32
2024-01-29T17:07:31.082Z,27.59
2024-01-29T17:10:05.722Z,28.14
2024-01-29T17:12:36.183Z,28.11
2024-01-29T17:15:08.218Z,28.79
2024-01-29T17:17:38.619Z,30.60
2024-01-29T17:20:09.336Z,29.81
2024-01-29T17:22:41.059Z,28.00
2024-01-29T17:25:14.063Z,28.67
2024-01-29T17:27:47.363Z,29.27
2024-01-29T17:30:21.308Z,31.32
2024-01-29T17:32:53.097Z,30.00
2024-01-29T17:35:23.465Z,31.87
2024-01-29T17:37:53.813Z,27.61
2024-01-29T17:40:24.288Z,27.42
2024-01-29T17:42:54.859Z,31.80
2024-01-29T17:45:25.456Z,29.09
2024-01-29T17:47:57.499Z,26.76
2024-01-29T17:50:28.998Z,28.54
2024-01-29T17:53:00.748Z,27.72
2024-01-29T17:55:41.018Z,26.90
2024-01-29T18:01:09.060Z,23.96
2024-01-29T18:03:39.490Z,27.98
2024-01-29T18:06:10.519Z,27.94
2024-01-29T18:08:40.857Z,30.57
2024-01-29T18:11:11.839Z,30.31
2024-01-29T18:13:45.360Z,30.46
2024-01-29T18:16:16.071Z,29.36
2024-01-29T18:18:46.871Z,31.97
2024-01-29T18:21:17.506Z,32.66
2024-01-29T18:23:48.771Z,27.91
2024-01-29T18:26:19.349Z,32.21
2024-01-29T18:28:49.730Z,31.63
2024-01-29T18:31:21.395Z,30.03
2024-01-29T18:36:36.315Z,30.51
2024-01-29T18:39:13.588Z,30.16
2024-01-29T18:41:44.293Z,28.72
2024-01-29T18:44:14.590Z,28.96
2024-01-29T18:46:55.766Z,31.00
2024-01-29T18:49:29.835Z,29.92
2024-01-29T18:52:07.648Z,30.98
2024-01-29T18:55:00.871Z,32.24
2024-01-29T18:57:31.315Z,32.01
2024-01-29T19:00:01.658Z,36.80
2024-01-29T19:02:31.958Z,47.22
2024-01-29T19:05:02.538Z,58.50
2024-01-29T19:07:33.402Z,65.21
2024-01-29T19:10:03.988Z,55.37
2024-01-29T19:12:40.421Z,56.93
2024-01-29T19:15:21.383Z,54.63
2024-01-29T19:20:55.457Z,44.77
2024-01-29T19:23:39.686Z,38.86
2024-01-29T19:29:35.981Z,35.99
2024-01-29T19:32:19.559Z,34.18
2024-01-29T19:34:50.506Z,30.81
2024-01-29T19:37:46.459Z,33.74
2024-01-29T19:40:15.018Z,33.22
2024-01-29T19:43:03.835Z,32.93
2024-01-29T19:45:38.815Z,30.70
2024-01-29T19:48:32.957Z,30.77
2024-01-29T20:00:20.649Z,33.41
2024-01-29T20:02:55.230Z,32.88
2024-01-29T20:08:11.133Z,32.16
2024-01-29T20:10:41.577Z,32.76
2024-01-29T20:13:16.396Z,35.06
2024-01-29T20:26:09.724Z,33.63
2024-01-29T20:29:03.343Z,31.11
2024-01-29T20:32:02.290Z,30.48
2024-01-29T20:41:05.191Z,31.27
2024-01-29T20:43:38.501Z,33.18
2024-01-29T20:46:34.902Z,30.89
2024-01-29T20:49:09.839Z,30.69
2024-01-29T20:52:02.746Z,30.57
2024-01-29T20:55:11.293Z,32.43
2024-01-29T20:58:00.356Z,31.40
2024-01-29T21:00:31.316Z,31.88
2024-01-29T21:03:15.101Z,34.17
2024-01-29T21:18:30.637Z,32.10
2024-01-29T21:21:11.803Z,31.49
2024-01-29T21:23:45.161Z,30.76
2024-01-29T21:26:39.931Z,33.09
2024-01-29T21:29:15.837Z,28.99
2024-01-29T21:31:47.733Z,32.81
2024-01-29T21:34:28.911Z,32.62
2024-01-29T21:40:28.997Z,32.93
2024-01-29T21:43:28.090Z,30.27
2024-01-29T21:46:17.855Z,31.42
2024-01-29T21:48:48.621Z,31.56
2024-01-29T21:51:35.620Z,27.33
2024-01-29T21:56:57.428Z,30.32
2024-01-29T22:02:50.277Z,27.09
2024-01-29T22:05:21.337Z,28.14
2024-01-29T22:07:51.975Z,28.77
2024-01-29T22:10:33.229Z,28.92
2024-01-29T22:13:26.164Z,27.93
2024-01-29T22:15:57.868Z,28.19
2024-01-29T22:21:36.716Z,28.24
2024-01-29T22:24:07.434Z,31.13
2024-01-29T22:29:32.523Z,29.27
2024-01-29T22:34:56.184Z,30.41
2024-01-29T22:52:32.706Z,27.49
2024-01-29T22:55:21.377Z,25.78
2024-01-29T22:58:00.253Z,28.74
2024-01-29T23:00:33.328Z,27.83
2024-01-29T23:03:37.717Z,28.54
2024-01-29T23:06:08.622Z,27.02
2024-01-29T23:08:44.649Z,27.87
2024-01-29T23:11:21.318Z,29.89
2024-01-29T23:14:10.755Z,29.46
2024-01-29T23:16:45.419Z,27.52
2024-01-29T23:19:23.379Z,27.49
2024-01-29T23:21:58.514Z,28.33
2024-01-29T23:24:29.132Z,25.67
2024-01-29T23:26:59.774Z,29.82
2024-01-29T23:46:13.600Z,26.83
2024-01-29T23:48:45.984Z,26.81
2024-01-29T23:51:39.832Z,27.97
2024-01-29T23:54:12.464Z,29.24
2024-01-29T23:56:57.071Z,28.61
2024-01-29T23:59:51.543Z,27.39
